Time;durP1;ratioP1;P1;durP2;ratioP2;P2;SDS_P1;SDS_P2;PMS_P1;PMS_P2;Temp;Humidity;BMP_temperature;BMP_pressure;BME280_temperature;BME280_humidity;BME280_pressure;Samples;Min_cycle;Max_cycle;Signal;HPM_P1;HPM_P2
2022/10/13 00:02:04;;;;;;;;;;;11.10;99.90;;;;;;4992356;28;19977;-67
2022/10/13 00:04:30;;;;;;;;;;;11.10;99.90;;;;;;4992621;28;19929;-71
2022/10/13 00:06:56;;;;;;;;;;;11.10;99.90;;;;;;4993233;28;20016;-67
2022/10/13 00:09:21;;;;;;;;;;;11.10;99.90;;;;;;4991576;28;19925;-67
2022/10/13 00:11:47;;;;;;;;;;;11.10;99.90;;;;;;4992583;28;20363;-68
2022/10/13 00:14:12;;;;;;;;;;;11.10;99.90;;;;;;4974940;28;19926;-66
2022/10/13 00:16:38;;;;;;;;;;;11.10;99.90;;;;;;4992692;28;19933;-67
2022/10/13 00:19:04;;;;;;;;;;;11.10;99.90;;;;;;4992437;28;19926;-68
2022/10/13 00:21:29;;;;;;;;;;;11.10;99.90;;;;;;4974615;28;19983;-66
2022/10/13 00:23:56;;;;;;;;;;;11.10;99.90;;;;;;4992286;28;19930;-67
2022/10/13 00:26:23;;;;;;;;;;;11.10;99.90;;;;;;4991831;28;20341;-67
2022/10/13 00:28:48;;;;;;;;;;;11.10;99.90;;;;;;5024006;28;20376;-66
2022/10/13 00:31:15;;;;;;;;;;;11.10;99.90;;;;;;4974649;28;20020;-67
2022/10/13 00:33:41;;;;;;;;;;;11.10;99.90;;;;;;4991379;28;19926;-67
2022/10/13 00:36:06;;;;;;;;;;;11.10;99.90;;;;;;4990762;28;19926;-67
2022/10/13 00:38:32;;;;;;;;;;;11.10;99.90;;;;;;4991723;28;19983;-67
2022/10/13 00:40:57;;;;;;;;;;;11.10;99.90;;;;;;4992425;28;19972;-67
2022/10/13 00:43:25;;;;;;;;;;;11.10;99.90;;;;;;4991838;28;19929;-69
2022/10/13 00:45:51;;;;;;;;;;;11.10;99.90;;;;;;4991848;28;20407;-67
2022/10/13 00:48:23;;;;;;;;;;;11.10;99.90;;;;;;4991055;28;19925;-67
2022/10/13 00:50:49;;;;;;;;;;;11.10;99.90;;;;;;4992293;28;19933;-67
2022/10/13 00:53:16;;;;;;;;;;;11.00;99.90;;;;;;4991560;28;19926;-73
2022/10/13 00:55:44;;;;;;;;;;;11.10;99.90;;;;;;4992145;28;19940;-67
2022/10/13 00:58:10;;;;;;;;;;;11.10;99.90;;;;;;4991060;28;20359;-69
2022/10/13 01:00:36;;;;;;;;;;;11.10;99.90;;;;;;4991949;28;19945;-67
2022/10/13 01:03:02;;;;;;;;;;;11.10;99.90;;;;;;4992111;28;20298;-67
2022/10/13 01:05:28;;;;;;;;;;;11.10;99.90;;;;;;4991714;28;19926;-67
2022/10/13 01:07:54;;;;;;;;;;;11.10;99.90;;;;;;4991131;28;19933;-67
2022/10/13 01:10:43;;;;;;;;;;;11.10;99.90;;;;;;4991755;28;19926;-67
2022/10/13 01:13:18;;;;;;;;;;;11.10;99.90;;;;;;5009565;28;19925;-67
2022/10/13 01:15:51;;;;;;;;;;;11.10;99.90;;;;;;4992032;28;19933;-67
2022/10/13 01:18:25;;;;;;;;;;;11.10;99.90;;;;;;4991313;28;19925;-74
2022/10/13 01:21:00;;;;;;;;;;;11.10;99.90;;;;;;4991635;28;20382;-67
2022/10/13 01:23:29;;;;;;;;;;;11.10;99.90;;;;;;4991332;28;20248;-68
2022/10/13 01:26:22;;;;;;;;;;;11.10;99.90;;;;;;4991678;28;19978;-66
2022/10/13 01:29:00;;;;;;;;;;;11.10;99.90;;;;;;4991791;28;20293;-66
2022/10/13 01:31:33;;;;;;;;;;;11.10;99.90;;;;;;4991426;28;19933;-67
2022/10/13 01:34:07;;;;;;;;;;;11.10;99.90;;;;;;4990544;28;19981;-67
2022/10/13 01:36:40;;;;;;;;;;;11.10;99.90;;;;;;5022982;28;19976;-66
2022/10/13 01:39:08;;;;;;;;;;;11.10;99.90;;;;;;4991041;28;19979;-67
2022/10/13 01:41:36;;;;;;;;;;;11.10;99.90;;;;;;4989775;28;20017;-66
2022/10/13 01:44:11;;;;;;;;;;;11.10;99.90;;;;;;4991480;28;19971;-69
2022/10/13 01:46:37;;;;;;;;;;;11.10;99.90;;;;;;4990795;28;20015;-66
2022/10/13 01:49:09;;;;;;;;;;;11.10;99.90;;;;;;4991366;28;20294;-67
2022/10/13 01:51:35;;;;;;;;;;;11.10;99.90;;;;;;4990758;28;19973;-66
2022/10/13 01:54:00;;;;;;;;;;;11.10;99.90;;;;;;4990975;28;19929;-67
2022/10/13 01:56:26;;;;;;;;;;;11.10;99.90;;;;;;4989639;28;19976;-67
2022/10/13 01:58:53;;;;;;;;;;;11.10;99.90;;;;;;4990898;28;19930;-67
2022/10/13 02:01:21;;;;;;;;;;;11.20;99.90;;;;;;4990384;28;20319;-67
2022/10/13 02:04:05;;;;;;;;;;;11.10;99.90;;;;;;4990495;28;19932;-67
2022/10/13 02:06:34;;;;;;;;;;;11.10;99.90;;;;;;4990806;28;19979;-67
2022/10/13 02:09:09;;;;;;;;;;;11.10;99.90;;;;;;4990907;28;19925;-67
2022/10/13 02:11:37;;;;;;;;;;;11.10;99.90;;;;;;4988793;28;19926;-67
2022/10/13 02:14:17;;;;;;;;;;;11.10;99.90;;;;;;4990903;28;19970;-68
2022/10/13 02:16:43;;;;;;;;;;;11.10;99.90;;;;;;4989490;28;20333;-67
2022/10/13 02:19:10;;;;;;;;;;;11.10;99.90;;;;;;4989357;28;20318;-67
2022/10/13 02:21:36;;;;;;;;;;;11.10;99.90;;;;;;4989443;28;19926;-67
2022/10/13 02:24:02;;;;;;;;;;;11.10;99.90;;;;;;4990676;28;19937;-67
2022/10/13 02:26:29;;;;;;;;;;;11.10;99.90;;;;;;4973342;28;20287;-73
2022/10/13 02:28:55;;;;;;;;;;;11.10;99.90;;;;;;4990708;28;20349;-66
2022/10/13 02:31:20;;;;;;;;;;;11.00;99.90;;;;;;4989629;28;19971;-67
2022/10/13 02:33:46;;;;;;;;;;;11.00;99.90;;;;;;4990104;28;19978;-66
2022/10/13 02:36:11;;;;;;;;;;;11.00;99.90;;;;;;4973578;28;19930;-66
2022/10/13 02:38:37;;;;;;;;;;;11.00;99.90;;;;;;4990489;28;20000;-66
2022/10/13 02:41:03;;;;;;;;;;;11.00;99.90;;;;;;4990370;28;19940;-66
2022/10/13 02:43:28;;;;;;;;;;;11.00;99.90;;;;;;4990581;28;19926;-71
2022/10/13 02:45:54;;;;;;;;;;;10.90;99.90;;;;;;4989115;28;19956;-68
2022/10/13 02:48:19;;;;;;;;;;;10.90;99.90;;;;;;4989549;28;19977;-67
2022/10/13 02:50:45;;;;;;;;;;;10.90;99.90;;;;;;4989979;28;19951;-68
2022/10/13 02:53:11;;;;;;;;;;;10.90;99.90;;;;;;4989374;28;20009;-67
2022/10/13 02:55:37;;;;;;;;;;;10.90;99.90;;;;;;4990057;28;20013;-67
2022/10/13 02:58:03;;;;;;;;;;;10.90;99.90;;;;;;4990406;28;19956;-67
2022/10/13 03:00:28;;;;;;;;;;;10.90;99.90;;;;;;4989019;28;19933;-67
2022/10/13 03:02:54;;;;;;;;;;;10.90;99.90;;;;;;4989915;28;19926;-67
2022/10/13 03:05:20;;;;;;;;;;;10.80;99.90;;;;;;4973058;28;20363;-67
2022/10/13 03:07:46;;;;;;;;;;;10.80;99.90;;;;;;4972754;28;19933;-67
2022/10/13 03:10:11;;;;;;;;;;;10.80;99.90;;;;;;4989690;28;19932;-67
2022/10/13 03:12:37;;;;;;;;;;;10.80;99.90;;;;;;4988387;28;20024;-66
2022/10/13 03:15:02;;;;;;;;;;;10.80;99.90;;;;;;4989046;28;19979;-69
2022/10/13 03:17:28;;;;;;;;;;;10.80;99.90;;;;;;4989153;28;20300;-68
2022/10/13 03:19:54;;;;;;;;;;;10.80;99.90;;;;;;4989338;28;20625;-66
2022/10/13 03:22:19;;;;;;;;;;;10.70;99.90;;;;;;4972276;28;19926;-67
2022/10/13 03:24:45;;;;;;;;;;;10.70;99.90;;;;;;4989307;28;19976;-67
2022/10/13 03:27:10;;;;;;;;;;;10.70;99.90;;;;;;4989591;28;19926;-67
2022/10/13 03:29:36;;;;;;;;;;;10.70;99.90;;;;;;4989480;28;19926;-72
2022/10/13 03:32:02;;;;;;;;;;;10.70;99.90;;;;;;4988229;28;19993;-67
2022/10/13 03:34:27;;;;;;;;;;;10.70;99.90;;;;;;4989371;28;19926;-67
2022/10/13 03:36:53;;;;;;;;;;;10.70;99.90;;;;;;4989014;28;19930;-69
2022/10/13 03:39:18;;;;;;;;;;;10.70;99.90;;;;;;4989404;28;20004;-67
2022/10/13 03:41:45;;;;;;;;;;;10.70;99.90;;;;;;4988045;28;19926;-67
2022/10/13 03:44:12;;;;;;;;;;;10.70;99.90;;;;;;4988394;28;19933;-68
2022/10/13 03:46:37;;;;;;;;;;;10.70;99.90;;;;;;4989422;28;19930;-68
2022/10/13 03:49:03;;;;;;;;;;;10.70;99.90;;;;;;4988045;28;19933;-67
2022/10/13 03:51:28;;;;;;;;;;;10.70;99.90;;;;;;4988354;28;20371;-65
2022/10/13 03:53:54;;;;;;;;;;;10.70;99.90;;;;;;4987769;28;19926;-67
2022/10/13 03:56:21;;;;;;;;;;;10.70;99.90;;;;;;4988661;28;19926;-66
2022/10/13 03:58:52;;;;;;;;;;;10.80;99.90;;;;;;4988184;28;19938;-66
2022/10/13 04:01:18;;;;;;;;;;;10.70;99.90;;;;;;4989601;28;19926;-66
2022/10/13 04:03:43;;;;;;;;;;;10.70;99.90;;;;;;5020785;28;19933;-67
2022/10/13 04:06:09;;;;;;;;;;;10.70;99.90;;;;;;4988372;28;19926;-67
2022/10/13 04:08:35;;;;;;;;;;;10.70;99.90;;;;;;4988091;28;19926;-66
2022/10/13 04:11:02;;;;;;;;;;;10.70;99.90;;;;;;4989116;28;20261;-66
2022/10/13 04:13:27;;;;;;;;;;;10.70;99.90;;;;;;4991016;28;19926;-67
2022/10/13 04:15:53;;;;;;;;;;;10.70;99.90;;;;;;4972404;28;19933;-66
2022/10/13 04:18:18;;;;;;;;;;;10.70;99.90;;;;;;4989481;28;19926;-67
2022/10/13 04:20:44;;;;;;;;;;;10.70;99.90;;;;;;4988781;28;19925;-71
2022/10/13 04:23:10;;;;;;;;;;;10.60;99.90;;;;;;4988481;28;19951;-65
2022/10/13 04:25:35;;;;;;;;;;;10.60;99.90;;;;;;4992481;28;19926;-66
2022/10/13 04:28:02;;;;;;;;;;;10.70;99.90;;;;;;4992237;28;19934;-66
2022/10/13 04:30:28;;;;;;;;;;;10.60;99.90;;;;;;4975400;28;19952;-66
2022/10/13 04:32:53;;;;;;;;;;;10.60;99.90;;;;;;4991993;28;19925;-66
2022/10/13 04:35:19;;;;;;;;;;;10.60;99.90;;;;;;4992295;28;19933;-67
2022/10/13 04:37:44;;;;;;;;;;;10.60;99.90;;;;;;4991307;28;19969;-69
2022/10/13 04:40:10;;;;;;;;;;;10.60;99.90;;;;;;4990725;28;19926;-67
2022/10/13 04:42:36;;;;;;;;;;;10.60;99.90;;;;;;4992320;28;19926;-67
2022/10/13 04:45:01;;;;;;;;;;;10.60;99.90;;;;;;4991916;28;19933;-67
2022/10/13 04:47:27;;;;;;;;;;;10.60;99.90;;;;;;4991757;28;19950;-67
2022/10/13 04:49:52;;;;;;;;;;;10.60;99.90;;;;;;4991700;28;19925;-67
2022/10/13 04:52:18;;;;;;;;;;;10.60;99.90;;;;;;4990884;28;19932;-68
2022/10/13 04:54:43;;;;;;;;;;;10.60;99.90;;;;;;4992290;28;20011;-66
2022/10/13 04:57:09;;;;;;;;;;;10.60;99.90;;;;;;4991858;28;19922;-69
2022/10/13 04:59:35;;;;;;;;;;;10.60;99.90;;;;;;4990994;28;19926;-67
2022/10/13 05:02:02;;;;;;;;;;;10.60;99.90;;;;;;4991783;28;19933;-68
2022/10/13 05:04:27;;;;;;;;;;;10.60;99.90;;;;;;4974787;28;19933;-67
2022/10/13 05:06:53;;;;;;;;;;;10.60;99.90;;;;;;4991403;28;19926;-68
2022/10/13 05:09:18;;;;;;;;;;;10.60;99.90;;;;;;4992164;28;19929;-66
2022/10/13 05:11:44;;;;;;;;;;;10.60;99.90;;;;;;4992038;28;19926;-67
2022/10/13 05:14:09;;;;;;;;;;;10.60;99.90;;;;;;4990697;28;19926;-67
2022/10/13 05:16:35;;;;;;;;;;;10.60;99.90;;;;;;4990610;28;19979;-67
2022/10/13 05:19:01;;;;;;;;;;;10.60;99.90;;;;;;4991442;28;19932;-67
2022/10/13 05:21:27;;;;;;;;;;;10.60;99.90;;;;;;4991707;28;19932;-66
2022/10/13 05:23:54;;;;;;;;;;;10.60;99.90;;;;;;4991507;28;19933;-71
2022/10/13 05:26:21;;;;;;;;;;;10.60;99.90;;;;;;4991773;28;19944;-69
2022/10/13 05:28:47;;;;;;;;;;;10.60;99.90;;;;;;4991566;28;19925;-67
2022/10/13 05:31:14;;;;;;;;;;;10.60;99.90;;;;;;4989828;28;19933;-66
2022/10/13 05:33:40;;;;;;;;;;;10.60;99.90;;;;;;4991593;28;20082;-67
2022/10/13 05:36:07;;;;;;;;;;;10.50;99.90;;;;;;4972893;28;19947;-67
2022/10/13 05:38:32;;;;;;;;;;;10.50;99.90;;;;;;4991579;28;19983;-67
2022/10/13 05:41:00;;;;;;;;;;;10.50;99.90;;;;;;4990179;28;19929;-67
2022/10/13 05:43:26;;;;;;;;;;;10.50;99.90;;;;;;4990919;28;20401;-65
2022/10/13 05:45:51;;;;;;;;;;;10.50;99.90;;;;;;4990436;28;19930;-67
2022/10/13 05:48:17;;;;;;;;;;;10.50;99.90;;;;;;4989070;28;20578;-67
2022/10/13 05:50:43;;;;;;;;;;;10.50;99.90;;;;;;4991149;28;19932;-66
2022/10/13 05:53:08;;;;;;;;;;;10.50;99.90;;;;;;4990430;28;19926;-66
2022/10/13 05:55:34;;;;;;;;;;;10.50;99.90;;;;;;4990010;28;19926;-67
2022/10/13 05:58:00;;;;;;;;;;;10.60;99.90;;;;;;4989506;28;19969;-67
2022/10/13 06:00:26;;;;;;;;;;;10.60;99.90;;;;;;4989883;28;19925;-67
2022/10/13 06:03:02;;;;;;;;;;;10.50;99.90;;;;;;4990851;28;19929;-67
2022/10/13 06:05:30;;;;;;;;;;;10.50;99.90;;;;;;4989774;28;19979;-66
2022/10/13 06:07:57;;;;;;;;;;;10.50;99.90;;;;;;4990823;28;19925;-66
2022/10/13 06:10:23;;;;;;;;;;;10.50;99.90;;;;;;4990357;28;20067;-66
2022/10/13 06:12:48;;;;;;;;;;;10.50;99.90;;;;;;5021991;28;19926;-66
2022/10/13 06:15:14;;;;;;;;;;;10.50;99.90;;;;;;4990249;28;19949;-65
2022/10/13 06:17:40;;;;;;;;;;;10.60;99.90;;;;;;4989238;28;20383;-66
2022/10/13 06:20:06;;;;;;;;;;;10.60;99.90;;;;;;4989180;28;20351;-66
2022/10/13 06:22:32;;;;;;;;;;;10.60;99.90;;;;;;4989698;28;19929;-66
2022/10/13 06:24:58;;;;;;;;;;;10.60;99.90;;;;;;4990260;28;19948;-66
2022/10/13 06:27:23;;;;;;;;;;;10.60;99.90;;;;;;4989263;28;19926;-66
2022/10/13 06:29:49;;;;;;;;;;;10.60;99.90;;;;;;4989408;28;20243;-65
2022/10/13 06:32:14;;;;;;;;;;;10.60;99.90;;;;;;4990060;28;19926;-66
2022/10/13 06:34:40;;;;;;;;;;;10.60;99.90;;;;;;4989709;28;19932;-65
2022/10/13 06:37:06;;;;;;;;;;;10.60;99.90;;;;;;4989297;28;19933;-66
2022/10/13 06:39:31;;;;;;;;;;;10.70;99.90;;;;;;4990201;28;19930;-67
2022/10/13 06:41:57;;;;;;;;;;;10.70;99.90;;;;;;4988994;28;19976;-66
2022/10/13 06:44:22;;;;;;;;;;;10.70;99.90;;;;;;4973004;28;19926;-66
2022/10/13 06:46:48;;;;;;;;;;;10.70;99.90;;;;;;4990449;28;19933;-67
2022/10/13 06:49:14;;;;;;;;;;;10.70;99.90;;;;;;4988749;28;20043;-67
2022/10/13 06:51:39;;;;;;;;;;;10.80;99.90;;;;;;4990145;28;19926;-69
2022/10/13 06:54:05;;;;;;;;;;;10.80;99.90;;;;;;4990239;28;19948;-71
2022/10/13 06:56:30;;;;;;;;;;;10.90;99.90;;;;;;4989266;28;20063;-68
2022/10/13 06:58:56;;;;;;;;;;;10.80;99.90;;;;;;4990495;28;19926;-69
2022/10/13 07:01:22;;;;;;;;;;;10.90;99.90;;;;;;4990069;28;20063;-68
2022/10/13 07:03:48;;;;;;;;;;;10.90;99.90;;;;;;4989314;28;19926;-68
2022/10/13 07:06:13;;;;;;;;;;;11.00;99.90;;;;;;4989913;28;19926;-70
2022/10/13 07:08:39;;;;;;;;;;;11.00;99.90;;;;;;4972789;28;19975;-69
2022/10/13 07:11:05;;;;;;;;;;;11.00;99.90;;;;;;4988775;28;19933;-70
2022/10/13 07:13:31;;;;;;;;;;;11.00;99.90;;;;;;4989761;28;20012;-68
2022/10/13 07:15:56;;;;;;;;;;;11.00;99.90;;;;;;4989117;28;19980;-69
2022/10/13 07:18:22;;;;;;;;;;;11.10;99.90;;;;;;4972350;28;19930;-67
2022/10/13 07:20:48;;;;;;;;;;;11.10;99.90;;;;;;4990031;28;19973;-68
2022/10/13 07:23:13;;;;;;;;;;;11.20;99.90;;;;;;4988379;28;20341;-67
2022/10/13 07:25:39;;;;;;;;;;;11.30;99.90;;;;;;4988811;28;19925;-68
2022/10/13 07:28:04;;;;;;;;;;;11.40;99.90;;;;;;4988500;28;19930;-68
2022/10/13 07:30:30;;;;;;;;;;;11.40;99.90;;;;;;4988529;28;19922;-68
2022/10/13 07:32:56;;;;;;;;;;;11.30;99.90;;;;;;4989646;28;19956;-69
2022/10/13 07:35:24;;;;;;;;;;;11.50;99.90;;;;;;4989162;28;20414;-67
2022/10/13 07:37:51;;;;;;;;;;;11.60;99.90;;;;;;4989797;28;19926;-67
2022/10/13 07:40:17;;;;;;;;;;;11.60;99.90;;;;;;4988344;28;20587;-68
2022/10/13 07:42:42;;;;;;;;;;;11.70;99.90;;;;;;4988387;28;19926;-70
2022/10/13 07:45:08;;;;;;;;;;;11.80;99.90;;;;;;4989501;28;19971;-71
2022/10/13 07:47:34;;;;;;;;;;;11.80;99.90;;;;;;4972221;28;19926;-71
2022/10/13 07:49:59;;;;;;;;;;;11.80;99.90;;;;;;4971978;28;19926;-71
2022/10/13 07:52:25;;;;;;;;;;;11.80;99.90;;;;;;4971507;28;19925;-72
2022/10/13 07:54:51;;;;;;;;;;;11.80;99.90;;;;;;4988390;28;19952;-71
2022/10/13 07:57:16;;;;;;;;;;;11.80;99.90;;;;;;4971656;28;19926;-71
2022/10/13 07:59:42;;;;;;;;;;;11.80;99.90;;;;;;5007615;28;19983;-71
2022/10/13 08:02:08;;;;;;;;;;;11.80;99.90;;;;;;4975577;28;20028;-71
2022/10/13 08:04:34;;;;;;;;;;;11.80;99.90;;;;;;4991374;28;19926;-71
2022/10/13 08:06:59;;;;;;;;;;;11.80;99.90;;;;;;4993069;28;19926;-72
2022/10/13 08:09:25;;;;;;;;;;;11.90;99.90;;;;;;4990974;28;19930;-72
2022/10/13 08:11:51;;;;;;;;;;;11.90;99.90;;;;;;4975314;28;20052;-71
2022/10/13 08:14:17;;;;;;;;;;;12.00;99.90;;;;;;4991415;28;19987;-74
2022/10/13 08:16:44;;;;;;;;;;;12.10;99.90;;;;;;4991505;28;20343;-70
2022/10/13 08:19:11;;;;;;;;;;;12.10;99.90;;;;;;4991727;28;19930;-72
2022/10/13 08:21:37;;;;;;;;;;;12.10;99.90;;;;;;4991036;28;19926;-71
2022/10/13 08:24:03;;;;;;;;;;;12.20;99.90;;;;;;4976449;28;19926;-70
2022/10/13 08:26:29;;;;;;;;;;;12.20;99.90;;;;;;4993688;28;19932;-73
2022/10/13 08:28:55;;;;;;;;;;;12.20;99.90;;;;;;4959485;28;19926;-72
2022/10/13 08:31:20;;;;;;;;;;;12.30;99.90;;;;;;4975011;28;19925;-73
2022/10/13 08:33:46;;;;;;;;;;;12.20;99.90;;;;;;4975217;28;20379;-74
2022/10/13 08:36:13;;;;;;;;;;;12.30;99.90;;;;;;4975381;28;20279;-74
2022/10/13 08:38:39;;;;;;;;;;;12.30;99.90;;;;;;4990865;28;19925;-74
2022/10/13 08:41:13;;;;;;;;;;;12.10;99.90;;;;;;4974925;28;19926;-72
2022/10/13 08:43:39;;;;;;;;;;;12.30;99.90;;;;;;4974690;28;19926;-73
2022/10/13 08:46:04;;;;;;;;;;;12.30;99.90;;;;;;4974770;28;19929;-74
2022/10/13 08:48:31;;;;;;;;;;;12.30;99.90;;;;;;4974772;28;19926;-71
2022/10/13 08:50:59;;;;;;;;;;;12.20;99.90;;;;;;4991282;28;19926;-71
2022/10/13 08:53:28;;;;;;;;;;;12.30;99.90;;;;;;4991085;28;19981;-69
2022/10/13 08:55:55;;;;;;;;;;;12.30;99.90;;;;;;4991789;28;20025;-72
2022/10/13 08:58:29;;;;;;;;;;;12.30;99.90;;;;;;4974906;28;19948;-73
2022/10/13 09:01:07;;;;;;;;;;;12.30;99.90;;;;;;4991018;28;19933;-69
2022/10/13 09:03:42;;;;;;;;;;;12.30;99.90;;;;;;4990498;28;19926;-70
2022/10/13 09:06:20;;;;;;;;;;;12.30;99.90;;;;;;4990558;28;19930;-72
2022/10/13 09:08:52;;;;;;;;;;;12.30;99.90;;;;;;4990690;28;19976;-71
2022/10/13 09:11:18;;;;;;;;;;;12.40;99.90;;;;;;4989621;28;19970;-73
2022/10/13 09:13:43;;;;;;;;;;;12.40;99.90;;;;;;4990394;28;20588;-74
2022/10/13 09:16:09;;;;;;;;;;;12.40;99.90;;;;;;4974544;28;20294;-71
2022/10/13 09:18:36;;;;;;;;;;;12.40;99.90;;;;;;4974836;28;20016;-78
2022/10/13 09:21:19;;;;;;;;;;;12.50;99.90;;;;;;4974668;28;19929;-73
2022/10/13 09:23:44;;;;;;;;;;;12.50;99.90;;;;;;4990592;28;19926;-76
2022/10/13 09:26:18;;;;;;;;;;;12.50;99.90;;;;;;4958169;28;19945;-76
2022/10/13 09:28:44;;;;;;;;;;;12.60;99.90;;;;;;4990251;28;19930;-71
2022/10/13 09:31:18;;;;;;;;;;;12.60;99.90;;;;;;4990375;28;20052;-70
2022/10/13 09:33:44;;;;;;;;;;;12.60;99.90;;;;;;4973943;28;19926;-72
2022/10/13 09:36:11;;;;;;;;;;;12.60;99.90;;;;;;4974199;28;20194;-72
2022/10/13 09:38:38;;;;;;;;;;;12.70;99.90;;;;;;4991016;28;19925;-70
2022/10/13 09:41:04;;;;;;;;;;;13.00;99.90;;;;;;4990279;28;19956;-72
2022/10/13 09:43:30;;;;;;;;;;;12.70;99.90;;;;;;4989819;28;19983;-72
2022/10/13 09:45:56;;;;;;;;;;;12.70;99.90;;;;;;4973595;28;19930;-71
2022/10/13 09:48:30;;;;;;;;;;;12.70;99.90;;;;;;4991645;28;19930;-71
2022/10/13 09:50:56;;;;;;;;;;;12.80;99.90;;;;;;4991734;28;19981;-70
2022/10/13 09:53:29;;;;;;;;;;;12.80;99.90;;;;;;4973188;28;19980;-71
2022/10/13 09:56:14;;;;;;;;;;;12.70;99.90;;;;;;5005892;28;20378;-71
2022/10/13 09:58:43;;;;;;;;;;;12.80;99.90;;;;;;5005910;28;19933;-72
2022/10/13 10:01:15;;;;;;;;;;;12.80;99.90;;;;;;4991002;28;20541;-72
2022/10/13 10:03:41;;;;;;;;;;;12.90;99.90;;;;;;4989895;28;19926;-71
2022/10/13 10:06:11;;;;;;;;;;;12.90;99.90;;;;;;4990143;28;19936;-72
2022/10/13 10:08:40;;;;;;;;;;;12.90;99.90;;;;;;4990369;28;20345;-70
2022/10/13 10:11:14;;;;;;;;;;;12.90;99.90;;;;;;4989707;28;19965;-71
2022/10/13 10:13:39;;;;;;;;;;;13.00;99.90;;;;;;4989207;28;20356;-69
2022/10/13 10:16:18;;;;;;;;;;;13.00;99.90;;;;;;4990087;28;19955;-72
2022/10/13 10:19:04;;;;;;;;;;;13.10;99.90;;;;;;4989310;28;19933;-71
2022/10/13 10:21:35;;;;;;;;;;;13.10;99.90;;;;;;4989420;28;19926;-70
2022/10/13 10:24:00;;;;;;;;;;;13.20;99.90;;;;;;4989586;28;19940;-70
2022/10/13 10:26:36;;;;;;;;;;;13.20;99.90;;;;;;4989676;28;19925;-69
2022/10/13 10:29:24;;;;;;;;;;;13.30;99.90;;;;;;4990445;28;19926;-70
2022/10/13 10:32:01;;;;;;;;;;;13.30;99.90;;;;;;4991468;28;19926;-69
2022/10/13 10:34:32;;;;;;;;;;;13.40;99.90;;;;;;4990725;28;19926;-70
2022/10/13 10:37:07;;;;;;;;;;;13.40;99.90;;;;;;5005590;28;19967;-69
2022/10/13 10:39:46;;;;;;;;;;;13.40;99.90;;;;;;4989650;28;20389;-70
2022/10/13 10:42:12;;;;;;;;;;;13.40;99.90;;;;;;4973110;28;20382;-71
2022/10/13 10:44:40;;;;;;;;;;;13.40;99.90;;;;;;4989640;28;19983;-72
2022/10/13 10:47:34;;;;;;;;;;;13.40;99.90;;;;;;4989667;28;19925;-71
2022/10/13 10:50:05;;;;;;;;;;;13.40;99.90;;;;;;5001605;28;20012;-70
2022/10/13 10:52:54;;;;;;;;;;;13.30;99.90;;;;;;4989621;28;19926;-71
2022/10/13 10:55:23;;;;;;;;;;;13.30;99.90;;;;;;4972658;28;19929;-72
2022/10/13 10:57:48;;;;;;;;;;;13.30;99.90;;;;;;4990044;28;19930;-72
2022/10/13 11:00:23;;;;;;;;;;;13.30;99.90;;;;;;4990170;28;20382;-72
2022/10/13 11:02:57;;;;;;;;;;;13.30;99.90;;;;;;4989867;28;19926;-72
2022/10/13 11:05:23;;;;;;;;;;;13.30;99.90;;;;;;4990459;28;19926;-72
2022/10/13 11:07:51;;;;;;;;;;;13.30;99.90;;;;;;4989752;28;19992;-70
2022/10/13 11:10:20;;;;;;;;;;;13.30;99.90;;;;;;4988951;28;20063;-71
2022/10/13 11:12:51;;;;;;;;;;;13.30;99.90;;;;;;4988786;28;19926;-68
2022/10/13 11:15:25;;;;;;;;;;;13.40;99.90;;;;;;4990465;28;19926;-70
2022/10/13 11:17:51;;;;;;;;;;;13.40;99.90;;;;;;4989131;28;19933;-71
2022/10/13 11:20:19;;;;;;;;;;;13.40;99.90;;;;;;4990042;28;19926;-71
2022/10/13 11:22:57;;;;;;;;;;;13.50;99.90;;;;;;4989621;28;20328;-68
2022/10/13 11:25:25;;;;;;;;;;;13.60;99.90;;;;;;4989775;28;20039;-70
2022/10/13 11:27:51;;;;;;;;;;;13.60;99.90;;;;;;4989555;28;19926;-71
2022/10/13 11:30:35;;;;;;;;;;;13.70;99.90;;;;;;4989905;28;19933;-70
2022/10/13 11:33:08;;;;;;;;;;;13.70;99.90;;;;;;5021287;28;20000;-70
2022/10/13 11:35:33;;;;;;;;;;;13.80;99.90;;;;;;4993181;28;20026;-71
2022/10/13 11:38:05;;;;;;;;;;;13.80;99.90;;;;;;4975534;28;19971;-70
2022/10/13 11:40:45;;;;;;;;;;;13.80;99.90;;;;;;4993032;28;19926;-71
2022/10/13 11:43:11;;;;;;;;;;;13.80;99.90;;;;;;4992993;28;19926;-71
2022/10/13 11:45:45;;;;;;;;;;;13.70;99.90;;;;;;4993024;28;19926;-72
2022/10/13 11:48:33;;;;;;;;;;;13.80;99.90;;;;;;4991945;28;19926;-72
2022/10/13 11:51:09;;;;;;;;;;;13.80;99.90;;;;;;4975697;28;20283;-72
2022/10/13 11:53:47;;;;;;;;;;;13.80;99.90;;;;;;4991573;28;19933;-71
2022/10/13 11:56:31;;;;;;;;;;;13.80;99.90;;;;;;4992272;28;19930;-73
2022/10/13 11:58:57;;;;;;;;;;;13.90;99.90;;;;;;4975275;28;19956;-73
2022/10/13 12:01:22;;;;;;;;;;;13.90;99.90;;;;;;4975738;28;19933;-71
2022/10/13 12:03:48;;;;;;;;;;;13.90;99.90;;;;;;4992638;28;19932;-71
2022/10/13 12:06:33;;;;;;;;;;;14.00;99.90;;;;;;4991593;28;19979;-71
2022/10/13 12:09:01;;;;;;;;;;;14.00;99.90;;;;;;4992321;28;19933;-70
2022/10/13 12:11:28;;;;;;;;;;;14.00;99.90;;;;;;4992610;28;20359;-71
2022/10/13 12:13:54;;;;;;;;;;;14.00;99.90;;;;;;4992560;28;20375;-70
2022/10/13 12:16:20;;;;;;;;;;;14.30;99.90;;;;;;4991942;28;19925;-71
2022/10/13 12:18:45;;;;;;;;;;;14.10;99.90;;;;;;4975797;28;20317;-71
2022/10/13 12:21:13;;;;;;;;;;;14.20;99.90;;;;;;4992145;28;19926;-71
2022/10/13 12:23:39;;;;;;;;;;;14.20;99.90;;;;;;4992448;28;19933;-72
2022/10/13 12:26:04;;;;;;;;;;;14.30;99.90;;;;;;4992188;28;19929;-70
2022/10/13 12:28:50;;;;;;;;;;;14.30;99.90;;;;;;4991684;28;19949;-71
2022/10/13 12:31:17;;;;;;;;;;;14.30;99.90;;;;;;4991817;28;19971;-71
2022/10/13 12:33:42;;;;;;;;;;;14.40;99.90;;;;;;4992268;28;19956;-70
2022/10/13 12:36:12;;;;;;;;;;;14.40;99.90;;;;;;4992060;28;19926;-73
2022/10/13 12:38:40;;;;;;;;;;;14.40;99.90;;;;;;4992809;28;19979;-69
2022/10/13 12:41:06;;;;;;;;;;;14.40;99.90;;;;;;4992217;28;20302;-69
2022/10/13 12:43:32;;;;;;;;;;;14.50;99.90;;;;;;4991214;28;20017;-67
2022/10/13 12:45:57;;;;;;;;;;;14.50;99.90;;;;;;4991594;28;19925;-69
2022/10/13 12:48:30;;;;;;;;;;;14.40;99.90;;;;;;4992265;28;19983;-69
2022/10/13 12:51:06;;;;;;;;;;;14.50;99.90;;;;;;4991014;28;19926;-69
2022/10/13 12:53:32;;;;;;;;;;;14.50;99.90;;;;;;4992060;28;19933;-68
2022/10/13 12:55:59;;;;;;;;;;;14.60;99.90;;;;;;4991780;28;20389;-69
2022/10/13 12:58:27;;;;;;;;;;;14.50;99.90;;;;;;4992170;28;19965;-68
2022/10/13 13:00:58;;;;;;;;;;;14.50;99.90;;;;;;4991541;28;20351;-67
2022/10/13 13:03:26;;;;;;;;;;;14.50;99.90;;;;;;4990768;28;19925;-67
2022/10/13 13:06:05;;;;;;;;;;;14.50;99.90;;;;;;4991059;28;20426;-67
2022/10/13 13:08:31;;;;;;;;;;;14.50;99.90;;;;;;5023516;28;19949;-67
2022/10/13 13:10:58;;;;;;;;;;;14.60;99.90;;;;;;4991871;28;20063;-66
2022/10/13 13:13:24;;;;;;;;;;;14.60;99.90;;;;;;4991125;28;19925;-68
2022/10/13 13:15:50;;;;;;;;;;;14.60;99.90;;;;;;5023500;28;19978;-68
2022/10/13 13:18:35;;;;;;;;;;;14.60;99.90;;;;;;4990357;28;19930;-68
2022/10/13 13:21:03;;;;;;;;;;;14.70;99.90;;;;;;4991888;28;19933;-68
2022/10/13 13:23:33;;;;;;;;;;;14.70;99.90;;;;;;4991545;28;20417;-69
2022/10/13 13:26:00;;;;;;;;;;;14.70;99.90;;;;;;4990985;28;19937;-69
2022/10/13 13:28:29;;;;;;;;;;;14.70;99.90;;;;;;4991265;28;19926;-68
2022/10/13 13:30:55;;;;;;;;;;;14.80;99.90;;;;;;4991752;28;19925;-69
2022/10/13 13:33:21;;;;;;;;;;;14.80;99.90;;;;;;4989873;28;19949;-69
2022/10/13 13:35:47;;;;;;;;;;;14.80;99.90;;;;;;4990838;28;19926;-70
2022/10/13 13:38:13;;;;;;;;;;;14.80;99.90;;;;;;4974003;28;19926;-70
2022/10/13 13:40:39;;;;;;;;;;;14.80;99.90;;;;;;4991251;28;20241;-70
2022/10/13 13:43:04;;;;;;;;;;;14.80;99.90;;;;;;4991396;28;19973;-71
2022/10/13 13:45:30;;;;;;;;;;;14.80;99.90;;;;;;4990825;28;19941;-70
2022/10/13 13:47:55;;;;;;;;;;;14.70;99.90;;;;;;4991126;28;19926;-69
2022/10/13 13:50:22;;;;;;;;;;;14.80;99.90;;;;;;4990943;28;19965;-72
2022/10/13 13:52:48;;;;;;;;;;;14.80;99.90;;;;;;4991199;28;20364;-70
2022/10/13 13:55:13;;;;;;;;;;;14.70;99.90;;;;;;4990396;28;19926;-72
2022/10/13 13:57:40;;;;;;;;;;;14.80;99.90;;;;;;4989501;28;20462;-72
2022/10/13 14:00:06;;;;;;;;;;;14.80;99.90;;;;;;4991829;28;20013;-71
2022/10/13 14:02:32;;;;;;;;;;;14.80;99.90;;;;;;4991584;28;20390;-72
2022/10/13 14:04:57;;;;;;;;;;;14.80;99.90;;;;;;4991095;28;20054;-70
2022/10/13 14:07:23;;;;;;;;;;;14.80;99.90;;;;;;4973241;28;19926;-71
2022/10/13 14:09:49;;;;;;;;;;;14.90;99.90;;;;;;4989916;28;20336;-71
2022/10/13 14:12:14;;;;;;;;;;;14.90;99.90;;;;;;4989599;28;20434;-70
2022/10/13 14:14:40;;;;;;;;;;;14.90;99.90;;;;;;4990541;28;19926;-65
2022/10/13 14:17:05;;;;;;;;;;;14.90;99.90;;;;;;4990487;28;19976;-66
2022/10/13 14:19:31;;;;;;;;;;;14.90;99.90;;;;;;4990293;28;20393;-66
2022/10/13 14:21:57;;;;;;;;;;;14.90;99.90;;;;;;4973623;28;19933;-65